If you wish to contribute or participate in the discussions about articles you are invited to join SKYbrary as a registered user

GCGM

From SKYbrary Wiki

Revision as of 19:01, 28 November 2011 by Timo.Kouwenhoven (Talk | contribs)
(diff) ← Older revision | Latest revision (diff) | Newer revision → (diff)
Jump to: navigation, search
Airport
Code GCGM
Name La Gomera
Region Europe
Territory Canary Islands
Location San Sebastián de la Gomera
Elevation

218.236801 m716 ft

Coordinates 28° 1' 50" N, 17° 12' 45" W
All Airports
in GC
GCFV, GCGM, GCHI, GCLA, GCLP, GCRR, GCTS, GCXO
Runways
Designator Length Width Surface
9/27 1500 m4,921.26 ft 30 m98.425 ft ASP


METAR
Observation GCGM 261000Z 23006KT 180V280 9999 FEW037 22/16 Q1019 RMK CAB09 24004KT 210V290
Station La Gomera
Elevation 0 metres
Date/Time 26 July 2014 10:00:00
Wind direction 230°
Wind speed 06 kts
Clouds few clouds
Clouds code FEW
Temperature 22°C
Dew point 16°C
Humidity 68%
QNH 1019 hPa
Weather condition n/a


WX
Tag(s) Volcanic Ash

La Gomera Airport (IATA: GMZ) is an airport located near the village of Alajeró, Spain, 34 km18.359 nm
34,000 m
111,548.557 ft
southwest by road from the Gomera island's capital city, San Sebastián de la Gomera.

Personal tools